Time;durP1;ratioP1;P1;durP2;ratioP2;P2;SDS_P1;SDS_P2;PMS_P1;PMS_P2;Temp;Humidity;BMP_temperature;BMP_pressure;BME280_temperature;BME280_humidity;BME280_pressure;Samples;Min_cycle;Max_cycle;Signal;HPM_P1;HPM_P2
2022/02/07 00:01:38;;;;;;;0.00;0.00;;;1.90;99.90;;;;;;6317669;22;20003;-86
2022/02/07 00:04:05;;;;;;;0.00;0.00;;;1.80;99.90;;;;;;6292553;22;20045;-86
2022/02/07 00:06:31;;;;;;;0.00;0.00;;;1.80;99.90;;;;;;6320836;22;20027;-85
2022/02/07 00:08:56;;;;;;;0.37;0.00;;;1.90;99.90;;;;;;6315427;22;20011;-85
2022/02/07 00:11:24;;;;;;;0.00;0.00;;;2.10;99.90;;;;;;6295054;22;20003;-86
2022/02/07 00:13:49;;;;;;;2.10;0.00;;;1.90;99.90;;;;;;6294321;22;20017;-85
2022/02/07 00:16:15;;;;;;;0.00;0.00;;;1.90;99.90;;;;;;6323868;22;20011;-85
2022/02/07 00:18:41;;;;;;;0.10;0.00;;;1.80;99.90;;;;;;6295422;22;20468;-85
2022/02/07 00:21:07;;;;;;;0.00;0.00;;;1.80;99.90;;;;;;6295751;22;20027;-85
2022/02/07 00:23:33;;;;;;;0.00;0.00;;;1.90;99.90;;;;;;6321761;22;20007;-85
2022/02/07 00:25:58;;;;;;;0.17;0.00;;;1.90;99.90;;;;;;6322331;22;20003;-86
2022/02/07 00:28:24;;;;;;;0.00;0.00;;;1.90;99.90;;;;;;6295513;22;20017;-85
2022/02/07 00:30:50;;;;;;;0.13;0.00;;;1.90;99.90;;;;;;6295023;22;20010;-86
2022/02/07 00:33:16;;;;;;;0.20;0.10;;;2.00;99.90;;;;;;6317970;22;19999;-85
2022/02/07 00:35:42;;;;;;;0.30;0.00;;;2.00;99.90;;;;;;6294945;22;20067;-85
2022/02/07 00:38:14;;;;;;;0.40;0.00;;;2.00;99.90;;;;;;6323417;22;20022;-86
2022/02/07 00:40:45;;;;;;;0.17;0.00;;;2.10;99.90;;;;;;6323111;22;20003;-86
2022/02/07 00:43:26;;;;;;;0.35;0.00;;;2.00;99.90;;;;;;6297412;22;19995;-85
2022/02/07 00:45:56;;;;;;;0.47;0.03;;;2.10;99.90;;;;;;6324251;22;19999;-85
2022/02/07 00:48:24;;;;;;;0.00;0.00;;;2.10;99.90;;;;;;6322635;22;20478;-85
2022/02/07 00:50:51;;;;;;;0.20;0.10;;;2.10;99.90;;;;;;6323681;22;20014;-85
2022/02/07 00:53:17;;;;;;;0.00;0.00;;;2.00;99.90;;;;;;6295217;22;20025;-85
2022/02/07 00:55:42;;;;;;;0.00;0.00;;;2.00;99.90;;;;;;6323097;22;20074;-86
2022/02/07 00:58:08;;;;;;;1.30;0.10;;;1.90;99.90;;;;;;6298336;22;20082;-85
2022/02/07 01:00:34;;;;;;;0.00;0.00;;;2.00;99.90;;;;;;6324011;22;20066;-85
2022/02/07 01:03:00;;;;;;;0.60;0.07;;;2.00;99.90;;;;;;6298581;22;19999;-86
2022/02/07 01:05:27;;;;;;;0.00;0.00;;;2.00;99.90;;;;;;6324626;22;20004;-85
2022/02/07 01:07:53;;;;;;;0.00;0.00;;;2.00;99.90;;;;;;6322376;22;20003;-86
2022/02/07 01:10:26;;;;;;;0.00;0.00;;;2.00;99.90;;;;;;6321416;22;19999;-86
2022/02/07 01:23:24;;;;;;;1.03;0.00;;;2.00;99.90;;;;;;6324933;22;19999;-87
2022/02/07 01:56:13;;;;;;;0.37;0.10;;;2.20;99.90;;;;;;6230121;23;20386;-87
2022/02/07 01:58:38;;;;;;;0.17;0.00;;;2.20;99.90;;;;;;6228416;23;20097;-87
2022/02/07 02:01:04;;;;;;;0.10;0.00;;;2.20;99.90;;;;;;6263869;22;20012;-87
2022/02/07 02:03:30;;;;;;;0.00;0.00;;;2.20;99.90;;;;;;6296490;22;20022;-87
2022/02/07 02:05:56;;;;;;;0.50;0.10;;;2.30;99.90;;;;;;6294075;22;20032;-86
2022/02/07 02:08:22;;;;;;;0.00;0.00;;;2.30;99.90;;;;;;6290272;22;20014;-87
2022/02/07 02:10:52;;;;;;;1.80;0.10;;;2.40;99.90;;;;;;6294062;22;20063;-87
2022/02/07 02:13:26;;;;;;;0.73;0.10;;;2.50;99.90;;;;;;6292627;22;19999;-87
2022/02/07 02:16:04;;;;;;;0.00;0.00;;;2.50;99.90;;;;;;6321319;22;20067;-87
2022/02/07 02:47:54;;;;;;;1.50;0.17;;;2.70;99.90;;;;;;6315410;22;20007;-87
2022/02/07 02:50:34;;;;;;;0.37;0.03;;;2.60;99.90;;;;;;6293513;22;20011;-86
2022/02/07 02:53:03;;;;;;;0.00;0.00;;;2.60;99.90;;;;;;6320315;22;20053;-86
2022/02/07 02:55:31;;;;;;;0.20;0.00;;;2.50;99.90;;;;;;6318222;22;20000;-87
2022/02/07 02:57:57;;;;;;;0.67;0.27;;;2.50;99.90;;;;;;6291740;22;20095;-87
2022/02/07 03:00:23;;;;;;;1.40;0.20;;;2.50;99.90;;;;;;6292212;22;20010;-87
2022/02/07 03:02:49;;;;;;;0.67;0.13;;;2.50;99.90;;;;;;6318473;22;19999;-87
2022/02/07 03:05:15;;;;;;;0.50;0.20;;;2.60;99.90;;;;;;6321023;22;20006;-87
2022/02/07 03:07:42;;;;;;;0.30;0.10;;;2.50;99.90;;;;;;6323042;22;19994;-87
2022/02/07 03:10:08;;;;;;;0.83;0.10;;;2.60;99.90;;;;;;6298819;22;20037;-87
2022/02/07 03:12:44;;;;;;;0.50;0.20;;;2.50;99.90;;;;;;6292393;22;20029;-87
2022/02/07 03:17:59;;;;;;;1.53;0.23;;;2.60;99.90;;;;;;6240085;22;20273;-91
2022/02/07 03:20:24;;;;;;;0.50;0.10;;;2.60;99.90;;;;;;6221178;23;20032;-90
2022/02/07 03:22:50;;;;;;;0.33;0.10;;;2.70;99.90;;;;;;6222745;23;20011;-90
2022/02/07 03:25:16;;;;;;;1.53;0.10;;;2.70;99.90;;;;;;6221783;23;20000;-88
2022/02/07 03:27:41;;;;;;;0.33;0.10;;;2.70;99.90;;;;;;6220082;23;20008;-87
2022/02/07 03:30:08;;;;;;;2.57;0.10;;;2.60;99.90;;;;;;6217561;23;20040;-85
2022/02/07 03:32:33;;;;;;;2.00;0.53;;;2.60;99.90;;;;;;6216776;23;20015;-86
2022/02/07 03:34:59;;;;;;;1.10;0.30;;;2.60;99.90;;;;;;6215996;23;20012;-86
2022/02/07 03:37:24;;;;;;;2.53;0.10;;;2.60;99.90;;;;;;6243605;22;20000;-85
2022/02/07 03:39:50;;;;;;;1.40;0.27;;;2.60;99.90;;;;;;6217476;23;20435;-85
2022/02/07 03:42:16;;;;;;;0.90;0.20;;;2.60;99.90;;;;;;6217342;23;20087;-85
2022/02/07 03:44:41;;;;;;;1.63;0.50;;;2.60;99.90;;;;;;6217720;23;20421;-86
2022/02/07 03:47:07;;;;;;;1.07;0.20;;;2.60;99.90;;;;;;6218632;23;20008;-86
2022/02/07 03:49:32;;;;;;;1.10;0.10;;;2.60;99.90;;;;;;6217590;23;20000;-86
2022/02/07 03:51:58;;;;;;;1.77;0.10;;;2.70;99.90;;;;;;6243594;23;20011;-84
2022/02/07 03:54:23;;;;;;;0.07;0.00;;;2.70;99.90;;;;;;6216600;23;20430;-85
2022/02/07 03:56:49;;;;;;;0.00;0.00;;;2.50;99.90;;;;;;6216379;23;20004;-84
2022/02/07 03:59:15;;;;;;;0.97;0.10;;;2.20;99.90;;;;;;6242626;23;20022;-84
2022/02/07 04:01:40;;;;;;;0.27;0.20;;;1.90;99.90;;;;;;6216351;23;20446;-84
2022/02/07 04:04:06;;;;;;;0.00;0.00;;;1.80;99.90;;;;;;6216760;23;20000;-84
2022/02/07 04:06:32;;;;;;;0.10;0.00;;;1.70;99.90;;;;;;6211942;22;20051;-84
2022/02/07 04:09:02;;;;;;;0.10;0.07;;;1.60;99.90;;;;;;6215744;23;20011;-84
2022/02/07 04:11:37;;;;;;;0.00;0.00;;;1.50;99.90;;;;;;6243603;23;20049;-84
2022/02/07 04:14:02;;;;;;;0.47;0.10;;;1.50;99.90;;;;;;6215999;23;20354;-84
2022/02/07 04:16:35;;;;;;;0.77;0.10;;;1.40;99.90;;;;;;6215563;22;20032;-84
2022/02/07 04:19:13;;;;;;;;;;;1.40;99.90;;;;;;6215460;23;20456;-85
2022/02/07 04:21:42;;;;;;;0.50;0.17;;;1.40;99.90;;;;;;6215845;23;19903;-84
2022/02/07 04:24:08;;;;;;;0.13;0.00;;;1.40;99.90;;;;;;6215402;23;20004;-84
2022/02/07 04:26:34;;;;;;;0.33;0.10;;;1.40;99.90;;;;;;6241448;22;20031;-84
2022/02/07 04:28:59;;;;;;;2.37;0.03;;;1.40;99.90;;;;;;6215836;23;20000;-84
2022/02/07 04:31:25;;;;;;;0.20;0.10;;;1.40;99.90;;;;;;6216378;23;20114;-85
2022/02/07 04:33:50;;;;;;;0.00;0.00;;;1.40;99.90;;;;;;6216204;23;20008;-85
2022/02/07 04:36:16;;;;;;;0.70;0.10;;;1.30;99.90;;;;;;6216161;22;20394;-85
2022/02/07 04:38:42;;;;;;;0.10;0.00;;;1.30;99.90;;;;;;6216150;23;20030;-84
2022/02/07 04:41:09;;;;;;;0.97;0.10;;;1.40;99.90;;;;;;6241337;23;20004;-85
2022/02/07 04:43:35;;;;;;;0.30;0.10;;;1.40;99.90;;;;;;6216770;23;20431;-85
2022/02/07 04:49:28;;;;;;;0.37;0.10;;;1.40;99.90;;;;;;6242930;22;20058;-84
2022/02/07 05:01:48;;;;;;;0.63;0.20;;;1.40;99.90;;;;;;6249707;23;20035;-85
2022/02/07 05:04:17;;;;;;;0.20;0.20;;;1.30;99.90;;;;;;6248003;22;20000;-85
2022/02/07 05:14:55;;;;;;;0.63;0.20;;;1.30;99.90;;;;;;6244871;23;20070;-85
2022/02/07 05:17:21;;;;;;;2.87;0.40;;;1.40;99.90;;;;;;6244346;22;20439;-86
2022/02/07 05:19:48;;;;;;;1.87;0.17;;;1.30;99.90;;;;;;6218094;23;20019;-87
2022/02/07 05:22:14;;;;;;;2.67;0.10;;;1.40;99.90;;;;;;6219380;23;20090;-88
2022/02/07 05:24:40;;;;;;;1.50;0.20;;;1.40;99.90;;;;;;6218623;23;20027;-85
2022/02/07 05:27:06;;;;;;;1.00;0.27;;;1.40;99.90;;;;;;6216580;23;20010;-86
2022/02/07 05:29:31;;;;;;;0.20;0.10;;;1.40;99.90;;;;;;6216883;23;20004;-84
2022/02/07 05:31:57;;;;;;;3.30;0.20;;;1.40;99.90;;;;;;6244518;23;20084;-86
2022/02/07 05:34:22;;;;;;;4.10;0.30;;;1.50;99.90;;;;;;6217860;23;20677;-85
2022/02/07 05:36:50;;;;;;;2.20;0.40;;;1.50;99.90;;;;;;6241196;22;20008;-85
2022/02/07 05:39:19;;;;;;;0.87;0.00;;;1.50;99.90;;;;;;6216629;23;20404;-84
2022/02/07 05:41:45;;;;;;;0.20;0.10;;;1.40;99.90;;;;;;6243572;23;20028;-86
2022/02/07 05:44:15;;;;;;;4.43;0.20;;;1.40;99.90;;;;;;6241935;23;20004;-85
2022/02/07 05:46:41;;;;;;;0.27;0.10;;;1.40;99.90;;;;;;6217288;23;19996;-85
2022/02/07 05:49:07;;;;;;;1.23;0.10;;;1.50;99.90;;;;;;6215506;23;20114;-85
2022/02/07 05:51:33;;;;;;;0.27;0.27;;;1.50;99.90;;;;;;6243929;23;20012;-86
2022/02/07 05:53:58;;;;;;;1.70;0.20;;;1.40;99.90;;;;;;6243473;23;20506;-86
2022/02/07 05:56:24;;;;;;;0.20;0.10;;;1.40;99.90;;;;;;6218873;22;20058;-86
2022/02/07 05:58:49;;;;;;;1.17;0.30;;;1.50;99.90;;;;;;6214180;23;20134;-87
2022/02/07 06:01:15;;;;;;;2.07;0.10;;;1.60;99.90;;;;;;6242522;23;20032;-87
2022/02/07 06:03:43;;;;;;;2.77;0.20;;;1.60;99.90;;;;;;6219184;23;20000;-88
2022/02/07 06:06:08;;;;;;;0.93;0.30;;;1.60;99.90;;;;;;6220336;23;20767;-89
2022/02/07 06:08:34;;;;;;;3.17;0.50;;;1.70;99.90;;;;;;6218742;23;20004;-89
2022/02/07 06:11:01;;;;;;;2.53;0.40;;;1.60;99.90;;;;;;6219347;23;20004;-89
2022/02/07 06:13:27;;;;;;;3.40;0.33;;;1.60;99.90;;;;;;6246584;23;20008;-89
2022/02/07 06:15:53;;;;;;;2.53;0.27;;;1.60;99.90;;;;;;6219442;23;20492;-89
2022/02/07 06:18:20;;;;;;;1.90;0.20;;;1.60;99.90;;;;;;6237547;23;20054;-89
2022/02/07 06:20:48;;;;;;;0.30;0.10;;;1.60;99.90;;;;;;6243535;23;20028;-90
2022/02/07 06:23:18;;;;;;;2.67;0.37;;;1.60;99.90;;;;;;6245774;23;20000;-89
2022/02/07 06:25:44;;;;;;;3.10;0.30;;;1.60;99.90;;;;;;6246584;23;20003;-89
2022/02/07 06:28:10;;;;;;;1.60;0.13;;;1.70;99.90;;;;;;6246054;22;20327;-89
2022/02/07 06:30:35;;;;;;;0.77;0.20;;;1.70;99.90;;;;;;6244190;23;20018;-87
2022/02/07 06:33:01;;;;;;;2.10;0.20;;;1.70;99.90;;;;;;6242921;23;20012;-88
2022/02/07 06:35:26;;;;;;;1.07;0.30;;;1.70;99.90;;;;;;6244472;23;20474;-88
2022/02/07 06:38:01;;;;;;;2.40;0.20;;;1.70;99.90;;;;;;6241065;22;20005;-88
2022/02/07 06:40:27;;;;;;;0.60;0.20;;;1.70;99.90;;;;;;6243636;23;20027;-88
2022/02/07 06:42:54;;;;;;;0.57;0.20;;;1.70;99.90;;;;;;6244042;23;20004;-88
2022/02/07 06:45:20;;;;;;;3.27;0.40;;;1.60;99.90;;;;;;6243124;23;20377;-89
2022/02/07 06:47:45;;;;;;;2.23;0.20;;;1.60;99.90;;;;;;6243570;22;20075;-89
2022/02/07 06:50:11;;;;;;;1.80;0.20;;;1.70;99.90;;;;;;6243015;23;20004;-89
2022/02/07 06:52:38;;;;;;;0.70;0.10;;;1.70;99.90;;;;;;6243899;23;20008;-89
2022/02/07 06:55:05;;;;;;;1.13;0.20;;;1.70;99.90;;;;;;6244323;23;20000;-90
2022/02/07 06:57:37;;;;;;;4.23;0.23;;;1.80;99.90;;;;;;6239151;22;20102;-90
2022/02/07 07:00:06;;;;;;;1.77;0.60;;;1.80;99.90;;;;;;6242907;23;20035;-89
2022/02/07 07:02:34;;;;;;;0.77;0.33;;;1.80;99.90;;;;;;6243553;23;20000;-89
2022/02/07 07:05:09;;;;;;;0.50;0.10;;;1.80;99.90;;;;;;6243679;23;20004;-89
2022/02/07 07:07:35;;;;;;;3.00;0.30;;;1.80;99.90;;;;;;6243437;22;20004;-89
2022/02/07 07:10:00;;;;;;;1.23;0.50;;;1.80;99.90;;;;;;6243487;23;20000;-90
2022/02/07 07:12:29;;;;;;;10.17;0.33;;;1.80;99.90;;;;;;6243348;23;20007;-89
2022/02/07 07:15:12;;;;;;;0.40;0.17;;;1.80;99.90;;;;;;6243834;23;20010;-89
2022/02/07 07:17:38;;;;;;;2.70;0.50;;;1.90;99.90;;;;;;6246419;22;20054;-88
2022/02/07 07:20:07;;;;;;;0.90;0.20;;;1.90;99.90;;;;;;6243824;23;20000;-89
2022/02/07 07:22:35;;;;;;;0.63;0.20;;;1.90;99.90;;;;;;6244911;23;19996;-89
2022/02/07 07:25:02;;;;;;;1.23;0.20;;;1.90;99.90;;;;;;6243169;23;20007;-89
2022/02/07 07:27:33;;;;;;;2.97;0.30;;;1.90;99.90;;;;;;6242575;22;20004;-88
2022/02/07 07:29:58;;;;;;;4.40;0.40;;;1.90;99.90;;;;;;6268321;22;20113;-88
2022/02/07 07:32:28;;;;;;;3.57;0.23;;;2.00;99.90;;;;;;6242581;23;20083;-87
2022/02/07 07:34:55;;;;;;;2.13;0.20;;;2.00;99.90;;;;;;6244262;23;20062;-89
2022/02/07 07:37:20;;;;;;;2.13;0.33;;;2.00;99.90;;;;;;6242306;22;20034;-89
2022/02/07 07:39:46;;;;;;;3.67;0.33;;;2.00;99.90;;;;;;6241747;23;20358;-90
2022/02/07 07:42:12;;;;;;;2.27;0.43;;;2.00;99.90;;;;;;6266980;22;20612;-87
2022/02/07 07:44:39;;;;;;;2.70;0.37;;;2.00;99.90;;;;;;6242409;23;20004;-87
2022/02/07 07:47:20;;;;;;;0.80;0.20;;;2.00;99.90;;;;;;6242737;22;20004;-87
2022/02/07 07:49:58;;;;;;;4.93;0.53;;;2.00;99.90;;;;;;6241955;23;20062;-88
2022/02/07 07:52:42;;;;;;;2.67;0.70;;;1.90;99.90;;;;;;6243067;23;20084;-88
2022/02/07 08:03:07;;;;;;;1.70;0.20;;;1.90;99.90;;;;;;6244161;23;20026;-88
2022/02/07 08:05:44;;;;;;;1.53;0.30;;;2.00;99.90;;;;;;6246618;23;20007;-87
2022/02/07 08:08:22;;;;;;;1.90;0.30;;;2.10;99.90;;;;;;6242037;22;20001;-87
2022/02/07 08:10:54;;;;;;;2.80;0.37;;;2.10;99.90;;;;;;6243063;23;20000;-86
2022/02/07 08:13:23;;;;;;;3.03;0.30;;;2.20;99.90;;;;;;6242522;23;20066;-87
2022/02/07 08:15:50;;;;;;;0.87;0.10;;;2.30;99.90;;;;;;6265738;22;20458;-86
2022/02/07 08:18:15;;;;;;;3.27;1.00;;;2.30;99.90;;;;;;6243823;22;20012;-87
2022/02/07 08:20:41;;;;;;;4.13;0.30;;;2.40;99.90;;;;;;6219404;23;20091;-87
2022/02/07 08:23:09;;;;;;;2.60;0.30;;;2.40;99.90;;;;;;6245033;23;20011;-87
2022/02/07 08:25:35;;;;;;;3.93;0.20;;;2.40;99.90;;;;;;6246106;23;20046;-85
2022/02/07 08:28:10;;;;;;;3.47;0.20;;;2.50;99.90;;;;;;6247500;22;20000;-86
2022/02/07 08:30:36;;;;;;;2.83;0.30;;;2.60;99.90;;;;;;6246587;23;20027;-87
2022/02/07 08:33:03;;;;;;;1.50;0.40;;;2.60;99.90;;;;;;6245809;23;20083;-86
2022/02/07 08:35:29;;;;;;;0.40;0.20;;;2.60;99.90;;;;;;6221073;23;20771;-86
2022/02/07 08:37:56;;;;;;;2.37;0.87;;;2.50;99.90;;;;;;6220713;23;20005;-86
2022/02/07 08:40:23;;;;;;;3.90;0.70;;;2.70;99.90;;;;;;6217001;23;20343;-87
2022/02/07 08:42:49;;;;;;;1.13;0.13;;;2.70;99.90;;;;;;6247611;23;19996;-86
2022/02/07 08:45:17;;;;;;;3.60;0.40;;;2.80;99.90;;;;;;6220078;23;20087;-85
2022/02/07 08:47:44;;;;;;;1.53;0.30;;;2.80;99.90;;;;;;6246264;22;20502;-86
2022/02/07 08:50:11;;;;;;;0.63;0.20;;;2.90;99.90;;;;;;6246221;23;20030;-86
2022/02/07 08:52:44;;;;;;;1.73;0.33;;;2.90;99.90;;;;;;6247065;23;20061;-87
2022/02/07 08:55:20;;;;;;;4.10;0.30;;;2.90;99.90;;;;;;6220107;23;20442;-86
2022/02/07 08:57:48;;;;;;;1.70;0.33;;;2.90;99.90;;;;;;6245209;22;20004;-86
2022/02/07 09:00:23;;;;;;;2.07;0.30;;;2.90;99.90;;;;;;6220842;23;20011;-87
2022/02/07 09:07:50;;;;;;;2.17;0.27;;;3.10;99.90;;;;;;6247079;22;20004;-86
2022/02/07 09:10:15;;;;;;;3.13;0.30;;;3.10;99.90;;;;;;6220533;23;20035;-87
2022/02/07 09:12:44;;;;;;;3.63;0.43;;;3.10;99.90;;;;;;6220016;23;20435;-87
2022/02/07 09:18:11;;;;;;;1.50;0.30;;;3.10;99.90;;;;;;6215458;22;20095;-87
2022/02/07 09:20:38;;;;;;;3.23;0.33;;;3.10;99.90;;;;;;6248707;22;20014;-87
2022/02/07 09:23:05;;;;;;;3.20;0.40;;;3.00;99.90;;;;;;6276557;22;20014;-87
2022/02/07 09:25:31;;;;;;;3.17;0.53;;;3.10;99.90;;;;;;6248919;22;20003;-86
2022/02/07 09:27:57;;;;;;;1.47;0.30;;;2.90;99.90;;;;;;6249182;22;20003;-87
2022/02/07 09:30:23;;;;;;;2.93;0.20;;;3.10;99.90;;;;;;6248660;22;20094;-87
2022/02/07 09:32:49;;;;;;;3.00;0.57;;;3.10;99.90;;;;;;6276433;22;20004;-87
2022/02/07 09:35:16;;;;;;;2.63;0.33;;;3.20;99.90;;;;;;6249521;22;20013;-87
2022/02/07 09:37:42;;;;;;;2.53;0.50;;;3.30;99.90;;;;;;6248842;22;20003;-87
2022/02/07 09:40:09;;;;;;;7.23;0.63;;;3.30;99.90;;;;;;6240733;22;20015;-85
2022/02/07 09:42:41;;;;;;;1.37;0.20;;;3.30;99.90;;;;;;6209256;23;20004;-86
2022/02/07 09:45:14;;;;;;;0.90;0.20;;;3.40;99.90;;;;;;6236639;23;20507;-86
2022/02/07 09:47:40;;;;;;;3.93;0.40;;;3.40;99.90;;;;;;6215198;23;20000;-86
2022/02/07 09:50:09;;;;;;;1.63;0.33;;;3.20;99.90;;;;;;6214467;22;20079;-86
2022/02/07 09:52:35;;;;;;;3.50;0.30;;;3.20;99.90;;;;;;6242669;23;20449;-85
2022/02/07 09:55:02;;;;;;;1.77;0.27;;;3.10;99.90;;;;;;6215589;23;20083;-86
2022/02/07 09:57:28;;;;;;;2.07;0.40;;;3.10;99.90;;;;;;6242648;23;19996;-86
2022/02/07 09:59:55;;;;;;;2.20;0.20;;;3.10;99.90;;;;;;6216847;22;20004;-85
2022/02/07 10:05:22;;;;;;;3.87;0.73;;;3.00;99.90;;;;;;6223093;23;20115;-86
2022/02/07 10:10:38;;;;;;;3.50;0.30;;;3.10;99.90;;;;;;6251872;22;20350;-85
2022/02/07 10:38:10;;;;;;;;;;;3.50;99.90;;;;;;6243778;23;20018;-85
2022/02/07 10:40:41;;;;;;;1.40;0.30;;;3.50;99.90;;;;;;6240305;22;19911;-85
2022/02/07 10:43:21;;;;;;;1.10;0.30;;;3.60;99.90;;;;;;6238739;23;20439;-85
2022/02/07 10:45:56;;;;;;;7.17;0.60;;;3.50;99.90;;;;;;6216331;23;20032;-86
2022/02/07 10:48:54;;;;;;;4.53;0.50;;;3.50;99.90;;;;;;6242802;23;20006;-86
2022/02/07 10:51:25;;;;;;;3.83;0.80;;;3.50;99.90;;;;;;6151750;23;20000;-86
2022/02/07 10:53:52;;;;;;;6.03;0.50;;;3.50;99.90;;;;;;6217128;23;20435;-85
2022/02/07 10:56:21;;;;;;;4.07;0.30;;;3.40;99.90;;;;;;6216796;23;20000;-85
2022/02/07 10:58:54;;;;;;;3.07;0.60;;;3.40;99.90;;;;;;6216560;23;20000;-85
2022/02/07 11:01:45;;;;;;;1.80;0.52;;;3.40;99.90;;;;;;6243475;22;20004;-85
2022/02/07 11:04:15;;;;;;;2.85;0.43;;;3.30;99.90;;;;;;6241726;23;20431;-85
2022/02/07 11:06:45;;;;;;;3.50;0.30;;;3.30;99.90;;;;;;6242408;23;20057;-84
2022/02/07 11:09:23;;;;;;;2.40;0.30;;;3.30;99.90;;;;;;6215104;23;20443;-85
2022/02/07 11:12:10;;;;;;;1.83;0.20;;;3.30;99.90;;;;;;6215262;23;20058;-85
2022/02/07 11:14:47;;;;;;;2.63;0.50;;;3.40;99.90;;;;;;6216324;23;20004;-85
2022/02/07 11:17:56;;;;;;;1.20;0.20;;;3.70;99.90;;;;;;6217412;23;20039;-86
2022/02/07 11:28:27;;;;;;;2.63;0.50;;;3.90;99.90;;;;;;6249006;23;20079;-86
2022/02/07 11:31:04;;;;;;;1.10;0.20;;;3.90;99.90;;;;;;6245556;22;20019;-86
2022/02/07 11:33:34;;;;;;;2.00;0.77;;;3.90;99.90;;;;;;6219604;23;20008;-85
2022/02/07 11:36:03;;;;;;;1.13;0.20;;;3.90;99.90;;;;;;6223905;23;20482;-86
2022/02/07 11:38:30;;;;;;;3.50;0.23;;;3.80;99.90;;;;;;6252486;23;20063;-86
2022/02/07 11:40:59;;;;;;;1.20;0.27;;;3.80;99.90;;;;;;6255712;22;20037;-86
2022/02/07 11:43:31;;;;;;;2.13;0.40;;;3.70;99.90;;;;;;6248833;23;20000;-87
2022/02/07 11:45:58;;;;;;;;;;;3.70;99.90;;;;;;6248513;23;20000;-87
2022/02/07 11:48:36;;;;;;;2.20;0.20;;;3.70;99.90;;;;;;6247377;23;19910;-88
2022/02/07 11:51:29;;;;;;;4.33;0.40;;;3.70;99.90;;;;;;6222704;23;20000;-87
2022/02/07 11:54:05;;;;;;;1.73;0.30;;;3.70;99.90;;;;;;6242454;23;20062;-86
2022/02/07 11:56:52;;;;;;;4.00;0.50;;;3.70;99.90;;;;;;6219707;23;20012;-87
2022/02/07 12:01:48;;;;;;;1.37;0.40;;;3.70;99.90;;;;;;6248148;22;20074;-88
2022/02/07 12:04:28;;;;;;;5.13;0.67;;;3.70;99.90;;;;;;6226143;23;20000;-87
2022/02/07 12:07:22;;;;;;;5.97;0.60;;;3.80;99.90;;;;;;6223266;23;20000;-88
2022/02/07 12:10:03;;;;;;;3.37;0.50;;;3.70;99.90;;;;;;6250000;23;19996;-87
2022/02/07 12:12:40;;;;;;;4.03;0.40;;;3.80;99.90;;;;;;6250620;23;20000;-88
2022/02/07 12:15:34;;;;;;;2.20;0.20;;;3.90;99.90;;;;;;6249799;23;20331;-88
2022/02/07 12:18:21;;;;;;;2.07;0.20;;;3.80;99.90;;;;;;6222327;23;20007;-88
2022/02/07 12:20:52;;;;;;;1.30;0.40;;;3.80;99.90;;;;;;6247647;22;20011;-87
2022/02/07 12:23:27;;;;;;;3.97;0.40;;;3.90;99.90;;;;;;6242832;23;20012;-88
2022/02/07 12:26:03;;;;;;;2.93;0.30;;;3.90;99.90;;;;;;6248067;23;19997;-87
2022/02/07 12:34:01;;;;;;;2.53;0.30;;;3.90;99.90;;;;;;6223893;23;20079;-88
2022/02/07 12:36:31;;;;;;;3.03;0.50;;;3.90;99.90;;;;;;6220149;23;20004;-88
2022/02/07 12:38:59;;;;;;;2.20;0.30;;;3.90;99.90;;;;;;6219963;23;20008;-88
2022/02/07 12:41:31;;;;;;;4.53;0.30;;;3.90;99.90;;;;;;6232398;23;20011;-88
2022/02/07 12:43:58;;;;;;;;;;;4.00;99.90;;;;;;6247457;23;20004;-88
2022/02/07 12:46:27;;;;;;;1.90;0.33;;;4.10;99.90;;;;;;6246752;23;20518;-88
2022/02/07 12:48:58;;;;;;;1.27;0.30;;;4.10;99.90;;;;;;6245726;23;20008;-89
2022/02/07 12:51:31;;;;;;;3.30;0.50;;;4.10;99.90;;;;;;6246049;22;20105;-87
2022/02/07 12:53:58;;;;;;;0.67;0.20;;;4.20;99.90;;;;;;6246051;23;20000;-88
2022/02/07 12:56:27;;;;;;;1.00;0.20;;;4.20;99.90;;;;;;6246001;23;20022;-88
2022/02/07 12:58:54;;;;;;;1.73;0.50;;;4.20;99.90;;;;;;6244935;23;20091;-88
2022/02/07 13:01:26;;;;;;;2.03;0.30;;;4.20;99.90;;;;;;6245645;22;20345;-88
2022/02/07 13:04:01;;;;;;;0.63;0.20;;;4.20;99.90;;;;;;6245342;23;20027;-87
2022/02/07 13:06:47;;;;;;;3.50;0.77;;;4.20;99.90;;;;;;6270448;22;20721;-89
2022/02/07 13:09:16;;;;;;;3.03;0.87;;;4.20;99.90;;;;;;6245369;23;20007;-88
2022/02/07 13:12:00;;;;;;;1.37;0.30;;;4.00;99.90;;;;;;6247587;22;20346;-88
2022/02/07 13:14:26;;;;;;;2.00;0.30;;;4.10;99.90;;;;;;6242642;23;20008;-87
2022/02/07 13:16:52;;;;;;;1.60;0.37;;;4.10;99.90;;;;;;6241392;23;20008;-88
2022/02/07 13:19:20;;;;;;;3.57;0.77;;;4.10;99.90;;;;;;6243910;23;20015;-88
2022/02/07 13:21:49;;;;;;;1.73;0.30;;;4.00;99.90;;;;;;6243970;22;20046;-87
2022/02/07 13:24:21;;;;;;;1.23;0.30;;;4.00;99.90;;;;;;6245441;23;20411;-88
2022/02/07 13:26:51;;;;;;;2.87;0.33;;;4.00;99.90;;;;;;6244273;23;20650;-88
2022/02/07 13:29:24;;;;;;;2.70;0.40;;;4.00;99.90;;;;;;6243014;23;20000;-87
2022/02/07 13:31:53;;;;;;;;;;;4.00;99.90;;;;;;6244169;22;20312;-87
2022/02/07 13:34:24;;;;;;;2.17;0.40;;;3.90;99.90;;;;;;6244829;23;20644;-87
2022/02/07 13:36:52;;;;;;;5.78;0.98;;;3.90;99.90;;;;;;6243498;23;20008;-88
2022/02/07 13:39:21;;;;;;;2.03;0.40;;;3.90;99.90;;;;;;6244342;23;20083;-87
2022/02/07 13:42:07;;;;;;;3.53;0.57;;;3.90;99.90;;;;;;6240653;22;20393;-87
2022/02/07 13:44:43;;;;;;;3.47;0.57;;;4.00;99.90;;;;;;6243615;23;20019;-87
2022/02/07 13:47:10;;;;;;;2.23;0.60;;;4.00;99.90;;;;;;6240016;23;20626;-87
2022/02/07 13:49:52;;;;;;;3.53;0.50;;;4.00;99.90;;;;;;6243774;23;20003;-87
2022/02/07 13:52:18;;;;;;;2.92;0.43;;;4.10;99.90;;;;;;6241741;22;20082;-87
2022/02/07 13:54:44;;;;;;;0.63;0.30;;;4.10;99.90;;;;;;6242020;23;20008;-86
2022/02/07 13:57:12;;;;;;;3.70;0.57;;;4.20;99.90;;;;;;6241455;23;20004;-86
2022/02/07 13:59:38;;;;;;;4.00;0.53;;;4.10;99.90;;;;;;6240953;23;20004;-86
2022/02/07 14:02:30;;;;;;;1.80;0.80;;;4.10;99.90;;;;;;6243044;22;20008;-87
2022/02/07 14:04:56;;;;;;;0.77;0.40;;;4.20;99.90;;;;;;6244303;22;19997;-88
2022/02/07 14:07:22;;;;;;;1.83;0.40;;;4.20;99.90;;;;;;6242370;23;20008;-87
2022/02/07 14:09:49;;;;;;;2.60;0.50;;;4.20;99.90;;;;;;6243652;23;20054;-87
2022/02/07 14:12:15;;;;;;;3.10;0.30;;;4.30;99.90;;;;;;6243152;22;20004;-87
2022/02/07 14:14:41;;;;;;;1.43;0.37;;;4.30;99.90;;;;;;6243398;23;20087;-87
2022/02/07 14:17:07;;;;;;;1.90;0.43;;;4.40;99.90;;;;;;6268418;22;20099;-87
2022/02/07 14:19:43;;;;;;;2.33;0.20;;;4.40;99.90;;;;;;6241670;23;20454;-87
2022/02/07 14:22:10;;;;;;;1.30;0.23;;;4.50;99.90;;;;;;6243052;22;20352;-86
2022/02/07 14:24:37;;;;;;;2.17;0.57;;;4.40;99.90;;;;;;6244038;23;20099;-87
2022/02/07 14:27:03;;;;;;;1.10;0.20;;;4.40;99.90;;;;;;6236781;23;20099;-86
2022/02/07 14:29:28;;;;;;;2.40;0.50;;;4.40;99.90;;;;;;6239466;22;20439;-87
2022/02/07 14:31:54;;;;;;;0.83;0.30;;;4.40;99.90;;;;;;6242995;22;20082;-87
2022/02/07 14:34:20;;;;;;;3.77;0.40;;;4.40;99.90;;;;;;6242909;23;20006;-87
2022/02/07 14:36:49;;;;;;;1.93;0.53;;;4.60;99.90;;;;;;6245969;23;20008;-87
2022/02/07 14:39:19;;;;;;;2.03;0.20;;;4.80;99.90;;;;;;6244366;23;20000;-87
2022/02/07 14:41:47;;;;;;;2.90;0.83;;;4.80;99.90;;;;;;6240474;22;20012;-87
2022/02/07 14:44:22;;;;;;;1.67;0.20;;;5.10;99.90;;;;;;6241228;23;20012;-87
2022/02/07 14:47:05;;;;;;;5.23;0.83;;;5.40;99.90;;;;;;6241085;23;20032;-87
2022/02/07 14:49:30;;;;;;;;;;;5.60;99.90;;;;;;6241276;23;20450;-87
2022/02/07 14:51:56;;;;;;;1.13;0.20;;;5.90;99.90;;;;;;6241042;22;19900;-87
2022/02/07 14:54:40;;;;;;;;;;;;;;;;;;;;;
2022/02/07 14:57:57;;;;;;;2.27;0.50;;;6.40;99.90;;;;;;6243206;23;20071;-87
2022/02/07 15:00:42;;;;;;;3.43;0.50;;;6.70;99.90;;;;;;6240383;22;20031;-87
2022/02/07 15:06:58;;;;;;;1.67;0.30;;;6.60;99.90;;;;;;6236983;22;20004;-85
2022/02/07 15:09:42;;;;;;;2.00;0.40;;;6.40;99.90;;;;;;6149176;23;20005;-85
2022/02/07 15:12:51;;;;;;;;;;;;;;;;;;;;;
2022/02/07 15:22:58;;;;;;;4.50;0.40;;;6.00;99.90;;;;;;6242004;22;20016;-87
2022/02/07 15:28:49;;;;;;;1.97;0.20;;;5.30;99.90;;;;;;6239587;23;20003;-86
2022/02/07 15:31:33;;;;;;;2.67;0.40;;;5.10;99.90;;;;;;6238128;22;20430;-88
2022/02/07 15:34:00;;;;;;;4.57;0.60;;;4.80;99.90;;;;;;6238635;23;20008;-88
2022/02/07 15:42:56;;;;;;;1.03;0.30;;;4.10;99.90;;;;;;6257914;22;20019;-90
2022/02/07 15:45:39;;;;;;;5.00;0.53;;;4.00;99.90;;;;;;6292527;22;20343;-89
2022/02/07 15:48:10;;;;;;;2.47;0.77;;;3.90;99.90;;;;;;6296947;22;20014;-90
2022/02/07 15:50:40;;;;;;;1.55;0.40;;;3.80;99.90;;;;;;6298869;22;20003;-90
2022/02/07 15:53:06;;;;;;;3.07;0.50;;;3.80;99.90;;;;;;6301809;22;20007;-90
2022/02/07 15:55:35;;;;;;;2.33;0.70;;;3.70;99.90;;;;;;6298873;22;19995;-90
2022/02/07 15:58:08;;;;;;;2.23;0.43;;;3.70;99.90;;;;;;6267305;22;20000;-90
2022/02/07 16:00:47;;;;;;;4.63;0.50;;;3.60;99.90;;;;;;6293208;22;20007;-89
2022/02/07 16:03:13;;;;;;;2.63;0.63;;;3.60;99.90;;;;;;6314918;22;20019;-86
2022/02/07 16:05:42;;;;;;;3.00;0.57;;;3.60;99.90;;;;;;6289367;22;20030;-85
2022/02/07 16:08:08;;;;;;;6.03;0.47;;;3.60;99.90;;;;;;6314008;22;20000;-86
2022/02/07 16:10:38;;;;;;;4.07;0.47;;;3.50;99.90;;;;;;6287112;22;20061;-86
2022/02/07 16:13:17;;;;;;;6.37;0.70;;;3.50;99.90;;;;;;6287738;22;20004;-85